sim
Sign-in with your pilot id or email,
or register
Callsign
Passwort

Schedule Details

Flight Number: RYR5083 (3)
Departure: Thessaloniki International Airport (LGTS) at 17:50
Arrival: Paphos International Airport (LCPH) at 19:40
Route: Ryanair Passenger Schedule. Enter filed route here before submitting Pirep.

Weather Information
Getting current METAR information for LGTS 192220Z 14004KT 9999 FEW020 13/09 Q1023 NOSIG
Getting current METAR information for LCPH 192230Z 01004KT 9999 FEW030 BKN040 12/10 Q1015

Schedule Frequency

Route Map